sensor_id;sensor_type;location;lat;lon;timestamp;P1;durP1;ratioP1;P2;durP2;ratioP2
59062;SDS011;44851;45.648;9.004;2023-05-24T00:01:12;6.27;;;5.67;;
59062;SDS011;44851;45.648;9.004;2023-05-24T00:03:38;6.03;;;5.43;;
59062;SDS011;44851;45.648;9.004;2023-05-24T00:06:04;5.87;;;5.30;;
59062;SDS011;44851;45.648;9.004;2023-05-24T00:08:31;6.70;;;6.00;;
59062;SDS011;44851;45.648;9.004;2023-05-24T00:10:57;6.00;;;5.40;;
59062;SDS011;44851;45.648;9.004;2023-05-24T00:13:23;6.50;;;5.90;;
59062;SDS011;44851;45.648;9.004;2023-05-24T00:15:49;7.47;;;5.97;;
59062;SDS011;44851;45.648;9.004;2023-05-24T00:18:14;5.60;;;5.10;;
59062;SDS011;44851;45.648;9.004;2023-05-24T00:20:42;5.80;;;5.30;;
59062;SDS011;44851;45.648;9.004;2023-05-24T00:23:07;6.93;;;5.93;;
59062;SDS011;44851;45.648;9.004;2023-05-24T00:25:33;7.93;;;5.73;;
59062;SDS011;44851;45.648;9.004;2023-05-24T00:27:59;7.90;;;5.57;;
59062;SDS011;44851;45.648;9.004;2023-05-24T00:30:24;7.30;;;5.83;;
59062;SDS011;44851;45.648;9.004;2023-05-24T00:32:50;7.57;;;5.60;;
59062;SDS011;44851;45.648;9.004;2023-05-24T00:35:15;6.50;;;5.90;;
59062;SDS011;44851;45.648;9.004;2023-05-24T00:37:41;6.93;;;5.47;;
59062;SDS011;44851;45.648;9.004;2023-05-24T00:40:09;5.73;;;5.23;;
59062;SDS011;44851;45.648;9.004;2023-05-24T00:42:38;6.07;;;5.40;;
59062;SDS011;44851;45.648;9.004;2023-05-24T00:45:03;4.90;;;4.50;;
59062;SDS011;44851;45.648;9.004;2023-05-24T00:47:29;6.10;;;5.10;;
59062;SDS011;44851;45.648;9.004;2023-05-24T00:49:55;5.20;;;4.70;;
59062;SDS011;44851;45.648;9.004;2023-05-24T00:52:20;4.80;;;4.40;;
59062;SDS011;44851;45.648;9.004;2023-05-24T00:54:46;4.90;;;4.40;;
59062;SDS011;44851;45.648;9.004;2023-05-24T00:57:12;4.60;;;4.20;;
59062;SDS011;44851;45.648;9.004;2023-05-24T00:59:39;6.50;;;4.13;;
59062;SDS011;44851;45.648;9.004;2023-05-24T01:02:05;4.27;;;3.93;;
59062;SDS011;44851;45.648;9.004;2023-05-24T01:04:30;4.33;;;3.97;;
59062;SDS011;44851;45.648;9.004;2023-05-24T01:18:15;6.33;;;4.30;;
59062;SDS011;44851;45.648;9.004;2023-05-24T01:20:46;5.80;;;4.03;;
59062;SDS011;44851;45.648;9.004;2023-05-24T01:23:30;4.20;;;3.70;;
59062;SDS011;44851;45.648;9.004;2023-05-24T01:28:36;4.50;;;4.10;;
59062;SDS011;44851;45.648;9.004;2023-05-24T01:31:03;4.53;;;4.13;;
59062;SDS011;44851;45.648;9.004;2023-05-24T01:33:30;4.53;;;4.00;;
59062;SDS011;44851;45.648;9.004;2023-05-24T01:35:56;4.53;;;4.03;;
59062;SDS011;44851;45.648;9.004;2023-05-24T01:38:22;4.70;;;3.90;;
59062;SDS011;44851;45.648;9.004;2023-05-24T01:40:48;4.63;;;4.23;;
59062;SDS011;44851;45.648;9.004;2023-05-24T01:43:30;4.67;;;4.27;;
59062;SDS011;44851;45.648;9.004;2023-05-24T01:46:17;6.20;;;4.00;;
59062;SDS011;44851;45.648;9.004;2023-05-24T01:51:53;4.80;;;4.30;;
59062;SDS011;44851;45.648;9.004;2023-05-24T01:54:30;4.90;;;4.10;;
59062;SDS011;44851;45.648;9.004;2023-05-24T01:56:58;5.07;;;4.53;;
59062;SDS011;44851;45.648;9.004;2023-05-24T01:59:29;4.80;;;4.23;;
59062;SDS011;44851;45.648;9.004;2023-05-24T02:01:57;5.77;;;4.93;;
59062;SDS011;44851;45.648;9.004;2023-05-24T02:04:23;4.57;;;4.13;;
59062;SDS011;44851;45.648;9.004;2023-05-24T02:06:49;6.30;;;4.50;;
59062;SDS011;44851;45.648;9.004;2023-05-24T02:09:14;5.00;;;4.50;;
59062;SDS011;44851;45.648;9.004;2023-05-24T02:11:40;5.77;;;4.30;;
59062;SDS011;44851;45.648;9.004;2023-05-24T02:14:05;6.53;;;4.43;;
59062;SDS011;44851;45.648;9.004;2023-05-24T02:16:31;5.00;;;4.47;;
59062;SDS011;44851;45.648;9.004;2023-05-24T02:18:57;5.43;;;4.43;;
59062;SDS011;44851;45.648;9.004;2023-05-24T02:21:22;5.03;;;4.53;;
59062;SDS011;44851;45.648;9.004;2023-05-24T02:23:49;4.90;;;4.10;;
59062;SDS011;44851;45.648;9.004;2023-05-24T02:26:14;4.90;;;4.40;;
59062;SDS011;44851;45.648;9.004;2023-05-24T02:28:42;4.40;;;3.90;;
59062;SDS011;44851;45.648;9.004;2023-05-24T02:31:08;4.40;;;4.00;;
59062;SDS011;44851;45.648;9.004;2023-05-24T02:33:34;4.57;;;3.90;;
59062;SDS011;44851;45.648;9.004;2023-05-24T02:36:00;5.13;;;4.20;;
59062;SDS011;44851;45.648;9.004;2023-05-24T02:38:25;5.33;;;4.23;;
59062;SDS011;44851;45.648;9.004;2023-05-24T02:40:51;5.53;;;4.17;;
59062;SDS011;44851;45.648;9.004;2023-05-24T02:43:16;4.33;;;3.93;;
59062;SDS011;44851;45.648;9.004;2023-05-24T02:45:42;4.70;;;3.83;;
59062;SDS011;44851;45.648;9.004;2023-05-24T02:48:07;5.43;;;4.10;;
59062;SDS011;44851;45.648;9.004;2023-05-24T02:50:32;4.37;;;3.97;;
59062;SDS011;44851;45.648;9.004;2023-05-24T02:52:58;4.53;;;4.03;;
59062;SDS011;44851;45.648;9.004;2023-05-24T02:55:23;4.70;;;4.30;;
59062;SDS011;44851;45.648;9.004;2023-05-24T02:57:49;4.73;;;3.67;;
59062;SDS011;44851;45.648;9.004;2023-05-24T03:00:15;4.17;;;3.87;;
59062;SDS011;44851;45.648;9.004;2023-05-24T03:02:43;4.63;;;4.23;;
59062;SDS011;44851;45.648;9.004;2023-05-24T03:05:11;4.30;;;4.00;;
59062;SDS011;44851;45.648;9.004;2023-05-24T03:07:37;7.80;;;4.20;;
59062;SDS011;44851;45.648;9.004;2023-05-24T03:10:02;5.20;;;4.70;;
59062;SDS011;44851;45.648;9.004;2023-05-24T03:12:28;5.83;;;4.37;;
59062;SDS011;44851;45.648;9.004;2023-05-24T03:14:54;4.37;;;3.90;;
59062;SDS011;44851;45.648;9.004;2023-05-24T03:17:19;5.83;;;3.90;;
59062;SDS011;44851;45.648;9.004;2023-05-24T03:19:45;4.80;;;4.37;;
59062;SDS011;44851;45.648;9.004;2023-05-24T03:22:10;5.03;;;4.53;;
59062;SDS011;44851;45.648;9.004;2023-05-24T03:24:36;5.57;;;4.70;;
59062;SDS011;44851;45.648;9.004;2023-05-24T03:27:03;5.47;;;3.90;;
59062;SDS011;44851;45.648;9.004;2023-05-24T03:29:29;4.73;;;4.27;;
59062;SDS011;44851;45.648;9.004;2023-05-24T03:31:55;5.30;;;4.27;;
59062;SDS011;44851;45.648;9.004;2023-05-24T03:34:21;5.53;;;4.50;;
59062;SDS011;44851;45.648;9.004;2023-05-24T03:36:46;5.13;;;4.00;;
59062;SDS011;44851;45.648;9.004;2023-05-24T03:39:11;4.60;;;4.00;;
59062;SDS011;44851;45.648;9.004;2023-05-24T03:41:37;4.60;;;4.20;;
59062;SDS011;44851;45.648;9.004;2023-05-24T03:44:02;5.97;;;4.50;;
59062;SDS011;44851;45.648;9.004;2023-05-24T03:46:28;5.10;;;4.33;;
59062;SDS011;44851;45.648;9.004;2023-05-24T03:48:53;7.33;;;5.10;;
59062;SDS011;44851;45.648;9.004;2023-05-24T03:51:19;4.80;;;4.33;;
59062;SDS011;44851;45.648;9.004;2023-05-24T03:53:44;6.27;;;4.87;;
59062;SDS011;44851;45.648;9.004;2023-05-24T03:56:10;6.10;;;4.53;;
59062;SDS011;44851;45.648;9.004;2023-05-24T03:58:35;6.07;;;4.07;;
59062;SDS011;44851;45.648;9.004;2023-05-24T04:01:01;5.73;;;4.50;;
59062;SDS011;44851;45.648;9.004;2023-05-24T04:03:27;6.07;;;4.10;;
59062;SDS011;44851;45.648;9.004;2023-05-24T04:05:52;4.93;;;4.23;;
59062;SDS011;44851;45.648;9.004;2023-05-24T04:08:18;4.40;;;4.00;;
59062;SDS011;44851;45.648;9.004;2023-05-24T04:10:44;4.73;;;4.33;;
59062;SDS011;44851;45.648;9.004;2023-05-24T04:13:09;5.90;;;4.00;;
59062;SDS011;44851;45.648;9.004;2023-05-24T04:15:35;5.33;;;4.13;;
59062;SDS011;44851;45.648;9.004;2023-05-24T04:18:02;4.93;;;4.47;;
59062;SDS011;44851;45.648;9.004;2023-05-24T04:20:27;6.37;;;4.87;;
59062;SDS011;44851;45.648;9.004;2023-05-24T04:22:53;6.03;;;5.07;;
59062;SDS011;44851;45.648;9.004;2023-05-24T04:25:20;6.13;;;4.30;;
59062;SDS011;44851;45.648;9.004;2023-05-24T04:27:46;5.20;;;4.70;;
59062;SDS011;44851;45.648;9.004;2023-05-24T04:30:14;5.10;;;4.40;;
59062;SDS011;44851;45.648;9.004;2023-05-24T04:32:41;6.00;;;4.87;;
59062;SDS011;44851;45.648;9.004;2023-05-24T04:35:08;4.43;;;4.03;;
59062;SDS011;44851;45.648;9.004;2023-05-24T04:37:34;5.20;;;4.70;;
59062;SDS011;44851;45.648;9.004;2023-05-24T04:40:00;5.03;;;4.53;;
59062;SDS011;44851;45.648;9.004;2023-05-24T04:42:25;5.30;;;4.80;;
59062;SDS011;44851;45.648;9.004;2023-05-24T04:44:56;5.17;;;4.43;;
59062;SDS011;44851;45.648;9.004;2023-05-24T04:47:21;5.17;;;4.67;;
59062;SDS011;44851;45.648;9.004;2023-05-24T04:49:47;4.97;;;4.57;;
59062;SDS011;44851;45.648;9.004;2023-05-24T04:52:13;5.17;;;4.53;;
59062;SDS011;44851;45.648;9.004;2023-05-24T04:54:39;5.73;;;4.90;;
59062;SDS011;44851;45.648;9.004;2023-05-24T04:57:04;5.60;;;4.83;;
59062;SDS011;44851;45.648;9.004;2023-05-24T04:59:30;6.53;;;4.87;;
59062;SDS011;44851;45.648;9.004;2023-05-24T05:01:55;6.20;;;5.00;;
59062;SDS011;44851;45.648;9.004;2023-05-24T05:04:21;6.23;;;4.97;;
59062;SDS011;44851;45.648;9.004;2023-05-24T05:06:46;10.90;;;5.70;;
59062;SDS011;44851;45.648;9.004;2023-05-24T05:09:12;7.47;;;5.80;;
59062;SDS011;44851;45.648;9.004;2023-05-24T05:11:39;8.60;;;4.93;;
59062;SDS011;44851;45.648;9.004;2023-05-24T05:14:04;7.40;;;4.87;;
59062;SDS011;44851;45.648;9.004;2023-05-24T05:16:33;7.30;;;4.87;;
59062;SDS011;44851;45.648;9.004;2023-05-24T05:18:59;5.13;;;4.63;;
59062;SDS011;44851;45.648;9.004;2023-05-24T05:21:24;6.87;;;4.40;;
59062;SDS011;44851;45.648;9.004;2023-05-24T05:23:50;5.23;;;4.73;;
59062;SDS011;44851;45.648;9.004;2023-05-24T05:26:15;6.07;;;4.70;;
59062;SDS011;44851;45.648;9.004;2023-05-24T05:28:41;5.13;;;4.63;;
59062;SDS011;44851;45.648;9.004;2023-05-24T05:31:06;6.70;;;4.20;;
59062;SDS011;44851;45.648;9.004;2023-05-24T05:33:32;6.13;;;4.63;;
59062;SDS011;44851;45.648;9.004;2023-05-24T05:35:57;5.57;;;4.27;;
59062;SDS011;44851;45.648;9.004;2023-05-24T05:38:23;5.03;;;4.53;;
59062;SDS011;44851;45.648;9.004;2023-05-24T05:40:48;5.10;;;4.70;;
59062;SDS011;44851;45.648;9.004;2023-05-24T05:43:14;5.53;;;4.40;;
59062;SDS011;44851;45.648;9.004;2023-05-24T05:45:39;7.40;;;5.07;;
59062;SDS011;44851;45.648;9.004;2023-05-24T05:48:05;6.67;;;4.67;;
59062;SDS011;44851;45.648;9.004;2023-05-24T05:50:30;8.10;;;5.47;;
59062;SDS011;44851;45.648;9.004;2023-05-24T05:52:56;6.57;;;4.70;;
59062;SDS011;44851;45.648;9.004;2023-05-24T05:55:22;5.87;;;5.00;;
59062;SDS011;44851;45.648;9.004;2023-05-24T05:57:48;9.87;;;5.47;;
59062;SDS011;44851;45.648;9.004;2023-05-24T06:00:13;8.40;;;5.97;;
59062;SDS011;44851;45.648;9.004;2023-05-24T06:02:39;12.17;;;6.87;;
59062;SDS011;44851;45.648;9.004;2023-05-24T06:05:04;12.60;;;6.67;;
59062;SDS011;44851;45.648;9.004;2023-05-24T06:07:30;10.33;;;6.60;;
59062;SDS011;44851;45.648;9.004;2023-05-24T06:09:56;10.60;;;7.10;;
59062;SDS011;44851;45.648;9.004;2023-05-24T06:12:21;11.93;;;6.70;;
59062;SDS011;44851;45.648;9.004;2023-05-24T06:14:47;10.20;;;7.07;;
59062;SDS011;44851;45.648;9.004;2023-05-24T06:17:14;13.00;;;9.33;;
59062;SDS011;44851;45.648;9.004;2023-05-24T06:19:40;15.40;;;9.60;;
59062;SDS011;44851;45.648;9.004;2023-05-24T06:22:07;13.73;;;9.90;;
59062;SDS011;44851;45.648;9.004;2023-05-24T06:24:33;13.63;;;8.90;;
59062;SDS011;44851;45.648;9.004;2023-05-24T06:26:58;12.20;;;8.83;;
59062;SDS011;44851;45.648;9.004;2023-05-24T06:29:24;15.10;;;8.57;;
59062;SDS011;44851;45.648;9.004;2023-05-24T06:31:49;12.37;;;6.80;;
59062;SDS011;44851;45.648;9.004;2023-05-24T06:34:16;9.00;;;5.97;;
59062;SDS011;44851;45.648;9.004;2023-05-24T06:36:43;12.13;;;6.13;;
59062;SDS011;44851;45.648;9.004;2023-05-24T06:39:11;10.67;;;5.73;;
59062;SDS011;44851;45.648;9.004;2023-05-24T06:41:37;7.30;;;5.97;;
59062;SDS011;44851;45.648;9.004;2023-05-24T06:44:03;10.53;;;5.63;;
59062;SDS011;44851;45.648;9.004;2023-05-24T06:46:29;12.00;;;5.57;;
59062;SDS011;44851;45.648;9.004;2023-05-24T06:48:55;9.13;;;6.10;;
59062;SDS011;44851;45.648;9.004;2023-05-24T06:51:20;8.20;;;5.80;;
59062;SDS011;44851;45.648;9.004;2023-05-24T06:53:46;9.97;;;6.60;;
59062;SDS011;44851;45.648;9.004;2023-05-24T06:56:12;7.03;;;5.97;;
59062;SDS011;44851;45.648;9.004;2023-05-24T06:58:37;8.07;;;6.13;;
59062;SDS011;44851;45.648;9.004;2023-05-24T07:01:03;8.30;;;5.87;;
59062;SDS011;44851;45.648;9.004;2023-05-24T07:03:29;7.50;;;6.27;;
59062;SDS011;44851;45.648;9.004;2023-05-24T07:05:55;9.37;;;6.07;;
59062;SDS011;44851;45.648;9.004;2023-05-24T07:08:21;9.27;;;6.63;;
59062;SDS011;44851;45.648;9.004;2023-05-24T07:10:48;7.33;;;6.17;;
59062;SDS011;44851;45.648;9.004;2023-05-24T07:13:14;9.87;;;7.80;;
59062;SDS011;44851;45.648;9.004;2023-05-24T07:15:42;7.70;;;6.73;;
59062;SDS011;44851;45.648;9.004;2023-05-24T07:18:07;8.93;;;6.83;;
59062;SDS011;44851;45.648;9.004;2023-05-24T07:20:33;7.17;;;6.47;;
59062;SDS011;44851;45.648;9.004;2023-05-24T07:22:59;8.70;;;6.40;;
59062;SDS011;44851;45.648;9.004;2023-05-24T07:25:26;9.43;;;6.70;;
59062;SDS011;44851;45.648;9.004;2023-05-24T07:27:51;8.10;;;6.77;;
59062;SDS011;44851;45.648;9.004;2023-05-24T07:30:17;8.70;;;7.00;;
59062;SDS011;44851;45.648;9.004;2023-05-24T07:32:42;7.97;;;6.50;;
59062;SDS011;44851;45.648;9.004;2023-05-24T07:35:09;6.87;;;6.27;;
59062;SDS011;44851;45.648;9.004;2023-05-24T07:37:37;10.30;;;8.00;;
59062;SDS011;44851;45.648;9.004;2023-05-24T07:40:02;11.77;;;8.13;;
59062;SDS011;44851;45.648;9.004;2023-05-24T07:42:29;10.63;;;7.50;;
59062;SDS011;44851;45.648;9.004;2023-05-24T07:44:55;9.10;;;8.10;;
59062;SDS011;44851;45.648;9.004;2023-05-24T07:47:21;8.47;;;7.13;;
59062;SDS011;44851;45.648;9.004;2023-05-24T07:49:46;8.30;;;7.50;;
59062;SDS011;44851;45.648;9.004;2023-05-24T07:52:11;8.73;;;7.93;;
59062;SDS011;44851;45.648;9.004;2023-05-24T07:54:37;9.57;;;8.03;;
59062;SDS011;44851;45.648;9.004;2023-05-24T07:57:02;9.03;;;8.17;;
59062;SDS011;44851;45.648;9.004;2023-05-24T07:59:28;9.10;;;7.90;;
59062;SDS011;44851;45.648;9.004;2023-05-24T08:01:54;9.23;;;8.30;;
59062;SDS011;44851;45.648;9.004;2023-05-24T08:04:25;9.47;;;8.50;;
59062;SDS011;44851;45.648;9.004;2023-05-24T08:06:51;10.13;;;9.00;;
59062;SDS011;44851;45.648;9.004;2023-05-24T08:09:16;13.63;;;9.67;;
59062;SDS011;44851;45.648;9.004;2023-05-24T08:11:41;10.83;;;9.73;;
59062;SDS011;44851;45.648;9.004;2023-05-24T08:14:07;10.37;;;9.27;;
59062;SDS011;44851;45.648;9.004;2023-05-24T08:16:32;10.73;;;9.73;;
59062;SDS011;44851;45.648;9.004;2023-05-24T08:18:58;10.97;;;8.80;;
59062;SDS011;44851;45.648;9.004;2023-05-24T08:21:23;10.33;;;9.27;;
59062;SDS011;44851;45.648;9.004;2023-05-24T08:23:49;11.47;;;9.03;;
59062;SDS011;44851;45.648;9.004;2023-05-24T08:26:15;11.30;;;10.07;;
59062;SDS011;44851;45.648;9.004;2023-05-24T08:28:43;13.53;;;9.97;;
59062;SDS011;44851;45.648;9.004;2023-05-24T08:31:08;11.87;;;10.63;;
59062;SDS011;44851;45.648;9.004;2023-05-24T08:33:34;12.50;;;11.30;;
59062;SDS011;44851;45.648;9.004;2023-05-24T08:35:59;11.43;;;9.93;;
59062;SDS011;44851;45.648;9.004;2023-05-24T08:38:25;10.33;;;9.33;;
59062;SDS011;44851;45.648;9.004;2023-05-24T08:40:50;12.50;;;11.30;;
59062;SDS011;44851;45.648;9.004;2023-05-24T08:43:16;10.70;;;9.57;;
59062;SDS011;44851;45.648;9.004;2023-05-24T08:45:43;12.67;;;11.37;;
59062;SDS011;44851;45.648;9.004;2023-05-24T08:48:09;12.60;;;10.17;;
59062;SDS011;44851;45.648;9.004;2023-05-24T08:50:37;11.13;;;10.07;;
59062;SDS011;44851;45.648;9.004;2023-05-24T08:53:03;12.00;;;10.90;;
59062;SDS011;44851;45.648;9.004;2023-05-24T08:55:31;11.87;;;10.67;;
59062;SDS011;44851;45.648;9.004;2023-05-24T08:57:57;12.20;;;11.00;;
59062;SDS011;44851;45.648;9.004;2023-05-24T09:00:24;14.87;;;13.00;;
59062;SDS011;44851;45.648;9.004;2023-05-24T09:02:50;12.07;;;10.77;;
59062;SDS011;44851;45.648;9.004;2023-05-24T09:05:16;13.40;;;12.13;;
59062;SDS011;44851;45.648;9.004;2023-05-24T09:07:42;13.00;;;11.70;;
59062;SDS011;44851;45.648;9.004;2023-05-24T09:10:09;13.57;;;12.27;;
59062;SDS011;44851;45.648;9.004;2023-05-24T09:12:35;14.10;;;12.13;;
59062;SDS011;44851;45.648;9.004;2023-05-24T09:15:03;13.67;;;12.37;;
59062;SDS011;44851;45.648;9.004;2023-05-24T09:17:30;13.27;;;11.93;;
59062;SDS011;44851;45.648;9.004;2023-05-24T09:19:56;12.87;;;11.37;;
59062;SDS011;44851;45.648;9.004;2023-05-24T09:22:23;13.23;;;11.30;;
59062;SDS011;44851;45.648;9.004;2023-05-24T09:24:51;12.23;;;10.87;;
59062;SDS011;44851;45.648;9.004;2023-05-24T09:27:21;12.03;;;10.83;;
59062;SDS011;44851;45.648;9.004;2023-05-24T09:29:47;13.27;;;10.93;;
59062;SDS011;44851;45.648;9.004;2023-05-24T09:32:16;15.13;;;13.63;;
59062;SDS011;44851;45.648;9.004;2023-05-24T09:34:43;12.40;;;11.20;;
59062;SDS011;44851;45.648;9.004;2023-05-24T09:37:16;13.40;;;12.10;;
59062;SDS011;44851;45.648;9.004;2023-05-24T09:39:44;14.77;;;13.30;;
59062;SDS011;44851;45.648;9.004;2023-05-24T09:42:14;13.77;;;12.37;;
59062;SDS011;44851;45.648;9.004;2023-05-24T09:44:42;14.80;;;13.40;;
59062;SDS011;44851;45.648;9.004;2023-05-24T09:47:08;13.37;;;12.03;;
59062;SDS011;44851;45.648;9.004;2023-05-24T09:49:36;15.17;;;13.57;;
59062;SDS011;44851;45.648;9.004;2023-05-24T09:52:02;16.03;;;13.03;;
59062;SDS011;44851;45.648;9.004;2023-05-24T09:54:30;15.13;;;13.73;;
59062;SDS011;44851;45.648;9.004;2023-05-24T09:56:56;14.87;;;13.47;;
59062;SDS011;44851;45.648;9.004;2023-05-24T09:59:26;13.50;;;12.20;;
59062;SDS011;44851;45.648;9.004;2023-05-24T10:01:55;13.80;;;12.40;;
59062;SDS011;44851;45.648;9.004;2023-05-24T10:04:34;12.93;;;11.60;;
59062;SDS011;44851;45.648;9.004;2023-05-24T10:06:59;16.20;;;14.50;;
59062;SDS011;44851;45.648;9.004;2023-05-24T10:09:27;14.07;;;12.80;;
59062;SDS011;44851;45.648;9.004;2023-05-24T10:11:59;14.53;;;13.03;;
59062;SDS011;44851;45.648;9.004;2023-05-24T10:14:28;13.43;;;12.20;;
59062;SDS011;44851;45.648;9.004;2023-05-24T10:17:00;14.03;;;12.73;;
59062;SDS011;44851;45.648;9.004;2023-05-24T10:19:29;14.23;;;12.93;;
59062;SDS011;44851;45.648;9.004;2023-05-24T10:21:55;15.57;;;13.97;;
59062;SDS011;44851;45.648;9.004;2023-05-24T10:24:23;15.97;;;14.47;;
59062;SDS011;44851;45.648;9.004;2023-05-24T10:26:51;15.80;;;14.23;;
59062;SDS011;44851;45.648;9.004;2023-05-24T10:32:40;15.83;;;14.23;;
59062;SDS011;44851;45.648;9.004;2023-05-24T10:35:08;14.93;;;13.53;;
59062;SDS011;44851;45.648;9.004;2023-05-24T10:37:39;17.63;;;15.97;;
59062;SDS011;44851;45.648;9.004;2023-05-24T10:40:05;15.53;;;14.03;;
59062;SDS011;44851;45.648;9.004;2023-05-24T10:42:34;17.10;;;15.40;;
59062;SDS011;44851;45.648;9.004;2023-05-24T10:45:15;15.40;;;14.00;;
59062;SDS011;44851;45.648;9.004;2023-05-24T10:47:55;16.50;;;15.00;;
59062;SDS011;44851;45.648;9.004;2023-05-24T10:50:21;17.90;;;16.10;;
59062;SDS011;44851;45.648;9.004;2023-05-24T10:52:49;15.63;;;14.17;;
59062;SDS011;44851;45.648;9.004;2023-05-24T10:55:17;17.40;;;15.50;;
59062;SDS011;44851;45.648;9.004;2023-05-24T10:57:43;16.77;;;15.23;;
59062;SDS011;44851;45.648;9.004;2023-05-24T11:02:47;16.83;;;15.23;;
59062;SDS011;44851;45.648;9.004;2023-05-24T11:05:13;15.47;;;13.90;;
59062;SDS011;44851;45.648;9.004;2023-05-24T11:07:42;15.23;;;13.73;;
59062;SDS011;44851;45.648;9.004;2023-05-24T11:10:08;16.13;;;14.53;;
59062;SDS011;44851;45.648;9.004;2023-05-24T11:12:58;14.97;;;13.30;;
59062;SDS011;44851;45.648;9.004;2023-05-24T11:15:25;15.83;;;14.23;;
59062;SDS011;44851;45.648;9.004;2023-05-24T11:20:41;30.83;;;16.47;;
59062;SDS011;44851;45.648;9.004;2023-05-24T11:23:08;16.03;;;14.40;;
59062;SDS011;44851;45.648;9.004;2023-05-24T11:25:40;13.53;;;12.33;;
59062;SDS011;44851;45.648;9.004;2023-05-24T11:28:09;13.53;;;12.33;;
59062;SDS011;44851;45.648;9.004;2023-05-24T11:30:45;12.20;;;11.10;;
59062;SDS011;44851;45.648;9.004;2023-05-24T11:33:18;11.73;;;10.63;;
59062;SDS011;44851;45.648;9.004;2023-05-24T11:35:46;12.87;;;11.60;;
59062;SDS011;44851;45.648;9.004;2023-05-24T11:38:14;13.37;;;12.10;;
59062;SDS011;44851;45.648;9.004;2023-05-24T11:40:43;12.23;;;11.13;;
59062;SDS011;44851;45.648;9.004;2023-05-24T11:43:15;11.53;;;10.43;;
59062;SDS011;44851;45.648;9.004;2023-05-24T11:45:42;12.60;;;11.07;;
59062;SDS011;44851;45.648;9.004;2023-05-24T11:48:10;11.57;;;10.37;;
59062;SDS011;44851;45.648;9.004;2023-05-24T11:50:39;11.43;;;10.40;;
59062;SDS011;44851;45.648;9.004;2023-05-24T11:53:08;6.40;;;5.80;;
59062;SDS011;44851;45.648;9.004;2023-05-24T11:55:38;8.00;;;5.73;;
59062;SDS011;44851;45.648;9.004;2023-05-24T11:58:06;5.63;;;5.13;;
59062;SDS011;44851;45.648;9.004;2023-05-24T12:00:36;9.10;;;6.80;;
59062;SDS011;44851;45.648;9.004;2023-05-24T12:03:06;6.30;;;5.50;;
59062;SDS011;44851;45.648;9.004;2023-05-24T12:05:56;8.10;;;6.10;;
59062;SDS011;44851;45.648;9.004;2023-05-24T12:08:21;7.60;;;5.43;;
59062;SDS011;44851;45.648;9.004;2023-05-24T12:10:47;6.83;;;6.07;;
59062;SDS011;44851;45.648;9.004;2023-05-24T12:13:22;8.07;;;6.87;;
59062;SDS011;44851;45.648;9.004;2023-05-24T12:15:52;6.73;;;5.90;;
59062;SDS011;44851;45.648;9.004;2023-05-24T12:18:19;8.50;;;6.13;;
59062;SDS011;44851;45.648;9.004;2023-05-24T12:20:48;7.33;;;6.03;;
59062;SDS011;44851;45.648;9.004;2023-05-24T12:23:15;6.67;;;5.80;;
59062;SDS011;44851;45.648;9.004;2023-05-24T12:25:41;11.33;;;6.67;;
59062;SDS011;44851;45.648;9.004;2023-05-24T12:28:06;14.00;;;6.43;;
59062;SDS011;44851;45.648;9.004;2023-05-24T12:30:31;7.57;;;5.53;;
59062;SDS011;44851;45.648;9.004;2023-05-24T12:32:57;6.23;;;5.63;;
59062;SDS011;44851;45.648;9.004;2023-05-24T12:35:23;6.70;;;6.00;;
59062;SDS011;44851;45.648;9.004;2023-05-24T12:37:48;7.77;;;6.87;;
59062;SDS011;44851;45.648;9.004;2023-05-24T12:40:18;7.60;;;6.90;;
59062;SDS011;44851;45.648;9.004;2023-05-24T12:42:53;7.27;;;6.57;;
59062;SDS011;44851;45.648;9.004;2023-05-24T12:45:21;7.07;;;6.37;;
59062;SDS011;44851;45.648;9.004;2023-05-24T12:47:49;7.00;;;6.30;;
59062;SDS011;44851;45.648;9.004;2023-05-24T12:50:19;8.87;;;6.20;;
59062;SDS011;44851;45.648;9.004;2023-05-24T12:52:46;6.30;;;5.70;;
59062;SDS011;44851;45.648;9.004;2023-05-24T12:55:12;6.87;;;6.27;;
59062;SDS011;44851;45.648;9.004;2023-05-24T12:57:42;8.80;;;6.13;;
59062;SDS011;44851;45.648;9.004;2023-05-24T13:00:08;6.63;;;6.00;;
59062;SDS011;44851;45.648;9.004;2023-05-24T13:02:35;6.13;;;5.50;;
59062;SDS011;44851;45.648;9.004;2023-05-24T13:05:01;6.27;;;5.67;;
59062;SDS011;44851;45.648;9.004;2023-05-24T13:07:28;6.23;;;5.63;;
59062;SDS011;44851;45.648;9.004;2023-05-24T13:09:54;7.03;;;5.97;;
59062;SDS011;44851;45.648;9.004;2023-05-24T13:12:20;6.13;;;5.63;;
59062;SDS011;44851;45.648;9.004;2023-05-24T13:14:53;7.33;;;6.10;;
59062;SDS011;44851;45.648;9.004;2023-05-24T13:17:18;6.73;;;6.23;;
59062;SDS011;44851;45.648;9.004;2023-05-24T13:19:44;6.40;;;5.90;;
59062;SDS011;44851;45.648;9.004;2023-05-24T13:22:11;7.10;;;6.13;;
59062;SDS011;44851;45.648;9.004;2023-05-24T13:24:36;7.27;;;5.77;;
59062;SDS011;44851;45.648;9.004;2023-05-24T13:27:02;6.73;;;5.63;;
59062;SDS011;44851;45.648;9.004;2023-05-24T13:29:27;7.23;;;5.77;;
59062;SDS011;44851;45.648;9.004;2023-05-24T13:31:53;6.30;;;5.70;;
59062;SDS011;44851;45.648;9.004;2023-05-24T13:34:20;8.40;;;6.40;;
59062;SDS011;44851;45.648;9.004;2023-05-24T13:36:45;6.47;;;5.87;;
59062;SDS011;44851;45.648;9.004;2023-05-24T13:39:11;7.30;;;6.60;;
59062;SDS011;44851;45.648;9.004;2023-05-24T13:41:37;7.10;;;6.27;;
59062;SDS011;44851;45.648;9.004;2023-05-24T13:44:02;7.20;;;6.03;;
59062;SDS011;44851;45.648;9.004;2023-05-24T13:46:28;6.73;;;6.10;;
59062;SDS011;44851;45.648;9.004;2023-05-24T13:48:54;6.90;;;6.13;;
59062;SDS011;44851;45.648;9.004;2023-05-24T13:51:20;6.83;;;6.13;;
59062;SDS011;44851;45.648;9.004;2023-05-24T13:53:46;8.03;;;6.10;;
59062;SDS011;44851;45.648;9.004;2023-05-24T13:56:12;14.10;;;6.80;;
59062;SDS011;44851;45.648;9.004;2023-05-24T13:58:38;10.20;;;7.07;;
59062;SDS011;44851;45.648;9.004;2023-05-24T14:01:03;8.63;;;6.67;;
59062;SDS011;44851;45.648;9.004;2023-05-24T14:03:29;12.27;;;7.33;;
59062;SDS011;44851;45.648;9.004;2023-05-24T14:05:54;17.27;;;9.23;;
59062;SDS011;44851;45.648;9.004;2023-05-24T14:08:20;13.80;;;9.83;;
59062;SDS011;44851;45.648;9.004;2023-05-24T14:10:45;14.77;;;10.60;;
59062;SDS011;44851;45.648;9.004;2023-05-24T14:13:13;19.83;;;10.23;;
59062;SDS011;44851;45.648;9.004;2023-05-24T14:15:39;12.80;;;10.73;;
59062;SDS011;44851;45.648;9.004;2023-05-24T14:18:06;12.80;;;11.50;;
59062;SDS011;44851;45.648;9.004;2023-05-24T14:20:34;12.17;;;11.00;;
59062;SDS011;44851;45.648;9.004;2023-05-24T14:23:02;13.17;;;11.87;;
59062;SDS011;44851;45.648;9.004;2023-05-24T14:25:27;15.17;;;11.57;;
59062;SDS011;44851;45.648;9.004;2023-05-24T14:27:53;11.97;;;10.70;;
59062;SDS011;44851;45.648;9.004;2023-05-24T14:30:18;11.53;;;10.40;;
59062;SDS011;44851;45.648;9.004;2023-05-24T14:32:44;12.67;;;11.33;;
59062;SDS011;44851;45.648;9.004;2023-05-24T14:35:09;14.23;;;12.63;;
59062;SDS011;44851;45.648;9.004;2023-05-24T14:37:35;15.73;;;14.20;;
59062;SDS011;44851;45.648;9.004;2023-05-24T14:40:00;17.13;;;15.27;;
59062;SDS011;44851;45.648;9.004;2023-05-24T14:42:25;16.37;;;14.77;;
59062;SDS011;44851;45.648;9.004;2023-05-24T14:44:51;14.73;;;13.23;;
59062;SDS011;44851;45.648;9.004;2023-05-24T14:47:16;15.27;;;13.43;;
59062;SDS011;44851;45.648;9.004;2023-05-24T14:49:41;13.93;;;12.47;;
59062;SDS011;44851;45.648;9.004;2023-05-24T14:52:07;12.93;;;11.63;;
59062;SDS011;44851;45.648;9.004;2023-05-24T14:54:32;12.47;;;11.33;;
59062;SDS011;44851;45.648;9.004;2023-05-24T14:56:58;11.80;;;10.60;;
59062;SDS011;44851;45.648;9.004;2023-05-24T14:59:23;13.50;;;10.93;;
59062;SDS011;44851;45.648;9.004;2023-05-24T15:01:49;12.43;;;11.13;;